Seago Piraeus — OXVD2 — position and weather

sailwx.info

Track history (hours):
 
Tides and Currents Weather Stations Pressure Air Temp Water Temp Dewpoint Dewpoint Depression Visibility Wind Speed Wind Dir Waves Ship Positions

Seago Piraeus

Last reported at 2015-Jan-26 18:33 UTC. Time now 2015-Jan-26 20:32 UTC.
Position N 53°31' E 004°52'.

Length 294 m; draft 11.1 m.

Type: Ship (hazmat cat A). MMSI: 219117000.

Date/timePositionNaut miles runAvg speedWind from/ knotsBaromVisibWave heightAir tempDewpointWater temp
2015-Jan-26 18:33N 53°31' E 004°52'10 9.8
2015-Jan-26 17:33N 53°34' E 005°07'1010.0
2015-Jan-26 16:33N 53°37' E 005°23'1010.3
2015-Jan-26 15:33N 53°41' E 005°40'1010.2
2015-Jan-26 14:33N 53°44' E 005°56'1010.0
2015-Jan-26 13:33N 53°47' E 006°12'10 9.3
2015-Jan-26 12:29N 53°50' E 006°28'30 9.4
2015-Jan-26 09:15N 53°57' E 007°18'8 9.7
2015-Jan-26 08:24N 53°59' E 007°32'7 8.0
2015-Jan-26 07:33N 53°56' E 007°42'9 9.2
2015-Jan-26 06:33N 53°52' E 007°56'1616.1
2015-Jan-26 05:33N 53°43' E 008°18'1110.4
2015-Jan-26 04:32N 53°35' E 008°31'0 0.0
2015-Jan-26 03:32N 53°35' E 008°31'0 0.0
2015-Jan-26 02:32N 53°35' E 008°31'0 0.0
2015-Jan-26 01:32N 53°35' E 008°31'0 0.0
2015-Jan-26 00:32N 53°35' E 008°31'0 0.0
2015-Jan-25 23:32N 53°35' E 008°31'0 0.0
2015-Jan-25 22:32N 53°35' E 008°31'0 0.0
2015-Jan-25 21:32N 53°35' E 008°31'0 0.0
2015-Jan-25 20:32N 53°35' E 008°31'0 0.0
2015-Jan-25 19:32N 53°35' E 008°31'0 0.0
2015-Jan-25 18:32N 53°35' E 008°31'0 0.0
2015-Jan-25 17:32N 53°35' E 008°31'0 0.0
2015-Jan-25 16:32N 53°35' E 008°31'0 0.0
2015-Jan-25 15:32N 53°35' E 008°31'0 0.0
2015-Jan-25 14:32N 53°35' E 008°31'0 0.0
2015-Jan-25 13:32N 53°35' E 008°31'0 0.0
2015-Jan-25 12:32N 53°35' E 008°31'0 0.0
2015-Jan-25 11:33N 53°35' E 008°31'6 6.3
2015-Jan-25 10:34N 53°40' E 008°23'1514.8
2015-Jan-25 09:33N 53°50' E 008°05'1111.1
2015-Jan-25 08:33N 53°54' E 007°47'1 0.4
2015-Jan-25 07:23N 53°54' E 007°48'0 0.1
2015-Jan-25 06:29N 53°54' E 007°48'0 0.0
2015-Jan-25 05:32N 53°54' E 007°48'0 0.2
2015-Jan-25 04:23N 53°54' E 007°48'0 0.1
2015-Jan-25 03:11N 53°54' E 007°48'0 0.0
2015-Jan-25 02:26N 53°54' E 007°48'0 0.0
2015-Jan-25 01:26N 53°54' E 007°48'0 0.0
2015-Jan-25 00:32N 53°54' E 007°48'0 0.0
2015-Jan-24 23:29N 53°54' E 007°48'0 0.0
2015-Jan-24 22:32N 53°54' E 007°48'0 0.0
2015-Jan-24 21:32N 53°54' E 007°48'0 0.0
2015-Jan-24 20:32N 53°54' E 007°48'0 0.0
2015-Jan-24 19:26N 53°54' E 007°48'0 0.1
2015-Jan-24 18:32N 53°54' E 007°48'0 0.1
2015-Jan-24 17:32N 53°54' E 007°48'0 0.0
2015-Jan-24 16:32N 53°54' E 007°48'0 0.1
2015-Jan-24 15:29N 53°54' E 007°48'0 0.0
2015-Jan-24 14:26N 53°54' E 007°48'0 0.0
2015-Jan-24 13:32N 53°54' E 007°48'0 0.0
2015-Jan-24 12:29N 53°54' E 007°48'0 0.0
2015-Jan-24 11:32N 53°54' E 007°48'0 0.0
2015-Jan-23 20:08N 53°54' E 007°48'0 0.0
2015-Jan-23 19:20N 53°54' E 007°48'0 0.1
2015-Jan-23 17:32N 53°54' E 007°48'0 0.0
2015-Jan-23 16:26N 53°54' E 007°48'0 0.0
2015-Jan-23 15:33N 53°54' E 007°48'6 5.8
2015-Jan-23 14:33N 53°55' E 007°38'1413.3
2015-Jan-23 13:28N 53°52' E 007°14'1413.7
2015-Jan-23 12:25N 53°49' E 006°51'1614.2
2015-Jan-23 11:17N 53°46' E 006°24'1114.8
2015-Jan-23 10:33N 53°43' E 006°06'1514.9
2015-Jan-23 09:33N 53°38' E 005°43'1515.1
2015-Jan-23 08:34N 53°33' E 005°18'1515.0
2015-Jan-23 07:33N 53°28' E 004°55'1222.1
2015-Jan-23 07:00N 53°18' E 004°42'3 6.0 160 / 81030.510.8 3.0 0.3 6.0
2015-Jan-23 06:33N 53°17' E 004°38'1615.5
2015-Jan-23 05:33N 53°04' E 004°25'1514.9
2015-Jan-23 04:33N 52°50' E 004°14'1413.9
2015-Jan-23 03:33N 52°42' E 003°56'1313.2
2015-Jan-23 02:33N 52°34' E 003°38'1512.8
2015-Jan-23 01:23N 52°24' E 003°20'2211.9
2015-Jan-22 23:31N 52°12' E 002°50'2110.4
2015-Jan-22 21:30N 51°59' E 002°23'1010.6
2015-Jan-22 20:33N 51°53' E 002°10'1111.5
2015-Jan-22 19:33N 51°48' E 001°53'1111.2
2015-Jan-22 18:33N 51°52' E 001°36'1111.1
2015-Jan-22 17:33N 51°56' E 001°19'2 2.3
2015-Jan-22 16:32N 51°58' E 001°17'0 0.0
2015-Jan-22 15:32N 51°58' E 001°17'0 0.0
2015-Jan-22 14:32N 51°58' E 001°17'0 0.0
2015-Jan-22 13:32N 51°58' E 001°17'0 0.0
2015-Jan-22 12:32N 51°58' E 001°17'0 0.0
2015-Jan-22 11:32N 51°58' E 001°17'0 0.0
2015-Jan-22 10:32N 51°58' E 001°17'0 0.0
2015-Jan-22 09:32N 51°58' E 001°17'0 0.0
2015-Jan-22 08:32N 51°58' E 001°17'0 0.0
2015-Jan-22 07:32N 51°58' E 001°17'0 0.0
2015-Jan-22 06:29N 51°58' E 001°17'0 0.0
2015-Jan-22 05:32N 51°58' E 001°17'0 0.0
2015-Jan-22 04:32N 51°58' E 001°17'0 0.0
2015-Jan-22 03:29N 51°58' E 001°17'0 0.0
2015-Jan-22 02:32N 51°58' E 001°17'0 0.0
2015-Jan-22 01:29N 51°58' E 001°17'0 0.0
2015-Jan-22 00:32N 51°58' E 001°17'0 0.0
2015-Jan-21 23:32N 51°58' E 001°17'0 0.0
2015-Jan-21 22:50N 51°58' E 001°17'0 0.0
2015-Jan-21 22:44N 51°58' E 001°17'0 0.0
2015-Jan-21 22:32N 51°58' E 001°17'1 0.7
2015-Jan-21 21:33N 51°57' E 001°18'8 8.0
2015-Jan-21 20:34N 51°56' E 001°31'9 8.7
2015-Jan-21 19:33N 51°52' E 001°43'3 2.7
2015-Jan-21 18:33N 51°53' E 001°47'0 0.2
2015-Jan-21 17:33N 51°53' E 001°47'2 1.7
2015-Jan-21 16:33N 51°52' E 001°49'9 9.5
2015-Jan-21 15:33N 51°42' E 001°49'9 9.4
2015-Jan-21 14:33N 51°33' E 001°47'1010.4
2015-Jan-21 13:34N 51°23' E 001°43'1211.7
2015-Jan-21 12:33N 51°12' E 001°38'1111.3
2015-Jan-21 11:34N 51°01' E 001°34'1715.8
2015-Jan-21 10:28N 50°45' E 001°23'4414.5
2015-Jan-21 07:26N 50°24' E 000°22'1913.0
2015-Jan-21 06:00N 50°18' W 000°06'14012.7 160 / 181009.110.8 0.5 4.0 1.410.0
2015-Jan-20 19:00N 49°30' W 003°30'6315.6 250 / 221010.110.8 2.0 9.0 6.911.0
2015-Jan-20 15:00N 49°00' W 004°54'4715.5 270 / 181006.210.8 2.011.0 4.312.0
2015-Jan-20 12:00N 48°30' W 005°48'5911.8 350 / 161008.910.8 2.0 9.1 8.712.0
2015-Jan-20 07:00N 47°36' W 006°24'16213.5 030 / 191009.110.8 1.5 9.0 8.612.0
2015-Jan-19 19:00N 45°12' W 008°12'6215.4 230 / 181018.110.8 1.010.010.013.0
2015-Jan-19 15:00N 44°18' W 008°54'11913.2 280 / 91017.610.8 2.511.0 6.813.0
2015-Jan-19 06:00N 42°24' W 009°42'3612.0 010 / 281024.110.8 3.011.0 9.014.0
2015-Jan-19 03:00N 41°48' W 009°42'4210.6 020 / 381019.310.8 4.511.0 6.813.0
2015-Jan-18 23:00N 41°06' W 009°48'11312.0 010 / 481015.2 5.4 4.513.0 4.814.0
2015-Jan-18 13:33N 39°13' W 009°50'1514.4
2015-Jan-18 12:32N 38°58' W 009°50'1414.4
2015-Jan-18 11:33N 38°44' W 009°50'1414.0
2015-Jan-18 10:33N 38°30' W 009°46'1413.7
2015-Jan-18 09:33N 38°17' W 009°42'1313.2
2015-Jan-18 08:33N 38°04' W 009°39'1312.6
2015-Jan-18 07:33N 37°51' W 009°36'1312.9
2015-Jan-18 06:33N 37°39' W 009°31'1119.1
2015-Jan-18 06:00N 37°30' W 009°24'610.1 290 / 201013.510.8 2.515.013.216.0
2015-Jan-18 05:24N 37°25' W 009°27'3113.0
2015-Jan-18 03:00N 36°54' W 009°18'1911.8 230 / 331012.8 5.4 3.514.014.016.0
2015-Jan-18 01:22N 36°42' W 008°59'1013.0
2015-Jan-18 00:33N 36°39' W 008°46'9614.7
2015-Jan-17 18:00N 36°06' W 006°54'8313.8 280 / 101030.110.8 0.513.011.115.0
2015-Jan-17 12:00N 36°00' W 005°12'19 9.7 270 / 251025.710.8 1.513.0 4.215.0
2015-Jan-17 10:00N 36°00' W 004°48'8316.7 290 / 201026.110.8 0.511.9 3.315.0
2015-Jan-17 05:00N 36°12' W 003°06'7414.8 290 / 181025.110.8 1.015.013.215.0
2015-Jan-17 00:00N 36°42' W 001°42'3614.4 050 / 111021.210.8 1.015.0 4.215.0
2015-Jan-16 21:29N 37°08' W 001°11'1414.7
2015-Jan-16 20:33N 37°17' W 000°58'1514.8
2015-Jan-16 19:33N 37°27' W 000°44'  
Track history (hours):
 
Tides and Currents Weather Stations Pressure Air Temp Water Temp Dewpoint Dewpoint Depression Visibility Wind Speed Wind Dir Waves Ship Positions

Seago Piraeus

Last reported at 2015-Jan-26 18:33 UTC. Time now 2015-Jan-26 20:32 UTC.
Position N 53°31' E 004°52'.

Length 294 m; draft 11.1 m.

Type: Ship (hazmat cat A). MMSI: 219117000.

Date/timePositionNaut miles runAvg speedWind from/ knotsBaromVisibWave heightAir tempDewpointWater temp
2015-Jan-26 18:33N 53°31' E 004°52'10 9.8
2015-Jan-26 17:33N 53°34' E 005°07'1010.0
2015-Jan-26 16:33N 53°37' E 005°23'1010.3
2015-Jan-26 15:33N 53°41' E 005°40'1010.2
2015-Jan-26 14:33N 53°44' E 005°56'1010.0
2015-Jan-26 13:33N 53°47' E 006°12'10 9.3
2015-Jan-26 12:29N 53°50' E 006°28'30 9.4
2015-Jan-26 09:15N 53°57' E 007°18'8 9.7
2015-Jan-26 08:24N 53°59' E 007°32'7 8.0
2015-Jan-26 07:33N 53°56' E 007°42'9 9.2
2015-Jan-26 06:33N 53°52' E 007°56'1616.1
2015-Jan-26 05:33N 53°43' E 008°18'1110.4
2015-Jan-26 04:32N 53°35' E 008°31'0 0.0
2015-Jan-26 03:32N 53°35' E 008°31'0 0.0
2015-Jan-26 02:32N 53°35' E 008°31'0 0.0
2015-Jan-26 01:32N 53°35' E 008°31'0 0.0
2015-Jan-26 00:32N 53°35' E 008°31'0 0.0
2015-Jan-25 23:32N 53°35' E 008°31'0 0.0
2015-Jan-25 22:32N 53°35' E 008°31'0 0.0
2015-Jan-25 21:32N 53°35' E 008°31'0 0.0
2015-Jan-25 20:32N 53°35' E 008°31'0 0.0
2015-Jan-25 19:32N 53°35' E 008°31'0 0.0
2015-Jan-25 18:32N 53°35' E 008°31'0 0.0
2015-Jan-25 17:32N 53°35' E 008°31'0 0.0
2015-Jan-25 16:32N 53°35' E 008°31'0 0.0
2015-Jan-25 15:32N 53°35' E 008°31'0 0.0
2015-Jan-25 14:32N 53°35' E 008°31'0 0.0
2015-Jan-25 13:32N 53°35' E 008°31'0 0.0
2015-Jan-25 12:32N 53°35' E 008°31'0 0.0
2015-Jan-25 11:33N 53°35' E 008°31'6 6.3
2015-Jan-25 10:34N 53°40' E 008°23'1514.8
2015-Jan-25 09:33N 53°50' E 008°05'1111.1
2015-Jan-25 08:33N 53°54' E 007°47'1 0.4
2015-Jan-25 07:23N 53°54' E 007°48'0 0.1
2015-Jan-25 06:29N 53°54' E 007°48'0 0.0
2015-Jan-25 05:32N 53°54' E 007°48'0 0.2
2015-Jan-25 04:23N 53°54' E 007°48'0 0.1
2015-Jan-25 03:11N 53°54' E 007°48'0 0.0
2015-Jan-25 02:26N 53°54' E 007°48'0 0.0
2015-Jan-25 01:26N 53°54' E 007°48'0 0.0
2015-Jan-25 00:32N 53°54' E 007°48'0 0.0
2015-Jan-24 23:29N 53°54' E 007°48'0 0.0
2015-Jan-24 22:32N 53°54' E 007°48'0 0.0
2015-Jan-24 21:32N 53°54' E 007°48'0 0.0
2015-Jan-24 20:32N 53°54' E 007°48'0 0.0
2015-Jan-24 19:26N 53°54' E 007°48'0 0.1
2015-Jan-24 18:32N 53°54' E 007°48'0 0.1
2015-Jan-24 17:32N 53°54' E 007°48'0 0.0
2015-Jan-24 16:32N 53°54' E 007°48'0 0.1
2015-Jan-24 15:29N 53°54' E 007°48'0 0.0
2015-Jan-24 14:26N 53°54' E 007°48'0 0.0
2015-Jan-24 13:32N 53°54' E 007°48'0 0.0
2015-Jan-24 12:29N 53°54' E 007°48'0 0.0
2015-Jan-24 11:32N 53°54' E 007°48'0 0.0
2015-Jan-23 20:08N 53°54' E 007°48'0 0.0
2015-Jan-23 19:20N 53°54' E 007°48'0 0.1
2015-Jan-23 17:32N 53°54' E 007°48'0 0.0
2015-Jan-23 16:26N 53°54' E 007°48'0 0.0
2015-Jan-23 15:33N 53°54' E 007°48'6 5.8
2015-Jan-23 14:33N 53°55' E 007°38'1413.3
2015-Jan-23 13:28N 53°52' E 007°14'1413.7
2015-Jan-23 12:25N 53°49' E 006°51'1614.2
2015-Jan-23 11:17N 53°46' E 006°24'1114.8
2015-Jan-23 10:33N 53°43' E 006°06'1514.9
2015-Jan-23 09:33N 53°38' E 005°43'1515.1
2015-Jan-23 08:34N 53°33' E 005°18'1515.0
2015-Jan-23 07:33N 53°28' E 004°55'1222.1
2015-Jan-23 07:00N 53°18' E 004°42'3 6.0 160 / 81030.510.8 3.0 0.3 6.0
2015-Jan-23 06:33N 53°17' E 004°38'1615.5
2015-Jan-23 05:33N 53°04' E 004°25'1514.9
2015-Jan-23 04:33N 52°50' E 004°14'1413.9
2015-Jan-23 03:33N 52°42' E 003°56'1313.2
2015-Jan-23 02:33N 52°34' E 003°38'1512.8
2015-Jan-23 01:23N 52°24' E 003°20'2211.9
2015-Jan-22 23:31N 52°12' E 002°50'2110.4
2015-Jan-22 21:30N 51°59' E 002°23'1010.6
2015-Jan-22 20:33N 51°53' E 002°10'1111.5
2015-Jan-22 19:33N 51°48' E 001°53'1111.2
2015-Jan-22 18:33N 51°52' E 001°36'1111.1
2015-Jan-22 17:33N 51°56' E 001°19'2 2.3
2015-Jan-22 16:32N 51°58' E 001°17'0 0.0
2015-Jan-22 15:32N 51°58' E 001°17'0 0.0
2015-Jan-22 14:32N 51°58' E 001°17'0 0.0
2015-Jan-22 13:32N 51°58' E 001°17'0 0.0
2015-Jan-22 12:32N 51°58' E 001°17'0 0.0
2015-Jan-22 11:32N 51°58' E 001°17'0 0.0
2015-Jan-22 10:32N 51°58' E 001°17'0 0.0
2015-Jan-22 09:32N 51°58' E 001°17'0 0.0
2015-Jan-22 08:32N 51°58' E 001°17'0 0.0
2015-Jan-22 07:32N 51°58' E 001°17'0 0.0
2015-Jan-22 06:29N 51°58' E 001°17'0 0.0
2015-Jan-22 05:32N 51°58' E 001°17'0 0.0
2015-Jan-22 04:32N 51°58' E 001°17'0 0.0
2015-Jan-22 03:29N 51°58' E 001°17'0 0.0
2015-Jan-22 02:32N 51°58' E 001°17'0 0.0
2015-Jan-22 01:29N 51°58' E 001°17'0 0.0
2015-Jan-22 00:32N 51°58' E 001°17'0 0.0
2015-Jan-21 23:32N 51°58' E 001°17'0 0.0
2015-Jan-21 22:50N 51°58' E 001°17'0 0.0
2015-Jan-21 22:44N 51°58' E 001°17'0 0.0
2015-Jan-21 22:32N 51°58' E 001°17'1 0.7
2015-Jan-21 21:33N 51°57' E 001°18'8 8.0
2015-Jan-21 20:34N 51°56' E 001°31'9 8.7
2015-Jan-21 19:33N 51°52' E 001°43'3 2.7
2015-Jan-21 18:33N 51°53' E 001°47'0 0.2
2015-Jan-21 17:33N 51°53' E 001°47'2 1.7
2015-Jan-21 16:33N 51°52' E 001°49'9 9.5
2015-Jan-21 15:33N 51°42' E 001°49'9 9.4
2015-Jan-21 14:33N 51°33' E 001°47'1010.4
2015-Jan-21 13:34N 51°23' E 001°43'1211.7
2015-Jan-21 12:33N 51°12' E 001°38'1111.3
2015-Jan-21 11:34N 51°01' E 001°34'1715.8
2015-Jan-21 10:28N 50°45' E 001°23'4414.5
2015-Jan-21 07:26N 50°24' E 000°22'1913.0
2015-Jan-21 06:00N 50°18' W 000°06'14012.7 160 / 181009.110.8 0.5 4.0 1.410.0
2015-Jan-20 19:00N 49°30' W 003°30'6315.6 250 / 221010.110.8 2.0 9.0 6.911.0
2015-Jan-20 15:00N 49°00' W 004°54'4715.5 270 / 181006.210.8 2.011.0 4.312.0
2015-Jan-20 12:00N 48°30' W 005°48'5911.8 350 / 161008.910.8 2.0 9.1 8.712.0
2015-Jan-20 07:00N 47°36' W 006°24'16213.5 030 / 191009.110.8 1.5 9.0 8.612.0
2015-Jan-19 19:00N 45°12' W 008°12'6215.4 230 / 181018.110.8 1.010.010.013.0
2015-Jan-19 15:00N 44°18' W 008°54'11913.2 280 / 91017.610.8 2.511.0 6.813.0
2015-Jan-19 06:00N 42°24' W 009°42'3612.0 010 / 281024.110.8 3.011.0 9.014.0
2015-Jan-19 03:00N 41°48' W 009°42'4210.6 020 / 381019.310.8 4.511.0 6.813.0
2015-Jan-18 23:00N 41°06' W 009°48'11312.0 010 / 481015.2 5.4 4.513.0 4.814.0
2015-Jan-18 13:33N 39°13' W 009°50'1514.4
2015-Jan-18 12:32N 38°58' W 009°50'1414.4
2015-Jan-18 11:33N 38°44' W 009°50'1414.0
2015-Jan-18 10:33N 38°30' W 009°46'1413.7
2015-Jan-18 09:33N 38°17' W 009°42'1313.2
2015-Jan-18 08:33N 38°04' W 009°39'1312.6
2015-Jan-18 07:33N 37°51' W 009°36'1312.9
2015-Jan-18 06:33N 37°39' W 009°31'1119.1
2015-Jan-18 06:00N 37°30' W 009°24'610.1 290 / 201013.510.8 2.515.013.216.0
2015-Jan-18 05:24N 37°25' W 009°27'3113.0
2015-Jan-18 03:00N 36°54' W 009°18'1911.8 230 / 331012.8 5.4 3.514.014.016.0
2015-Jan-18 01:22N 36°42' W 008°59'1013.0
2015-Jan-18 00:33N 36°39' W 008°46'9614.7
2015-Jan-17 18:00N 36°06' W 006°54'8313.8 280 / 101030.110.8 0.513.011.115.0
2015-Jan-17 12:00N 36°00' W 005°12'19 9.7 270 / 251025.710.8 1.513.0 4.215.0
2015-Jan-17 10:00N 36°00' W 004°48'8316.7 290 / 201026.110.8 0.511.9 3.315.0
2015-Jan-17 05:00N 36°12' W 003°06'7414.8 290 / 181025.110.8 1.015.013.215.0
2015-Jan-17 00:00N 36°42' W 001°42'3614.4 050 / 111021.210.8 1.015.0 4.215.0
2015-Jan-16 21:29N 37°08' W 001°11'1414.7
2015-Jan-16 20:33N 37°17' W 000°58'1514.8
2015-Jan-16 19:33N 37°27' W 000°44'  

Dump ship's entire track history